sensor_id;sensor_type;location;lat;lon;timestamp;temperature;humidity
19044;DHT22;9654;52.302;8.120;2023-04-01T00:02:26;9.50;99.90
19044;DHT22;9654;52.302;8.120;2023-04-01T00:04:53;9.50;99.90
19044;DHT22;9654;52.302;8.120;2023-04-01T00:07:20;9.50;99.90
19044;DHT22;9654;52.302;8.120;2023-04-01T00:09:47;9.50;99.90
19044;DHT22;9654;52.302;8.120;2023-04-01T00:12:14;9.50;99.90
19044;DHT22;9654;52.302;8.120;2023-04-01T00:14:41;9.50;99.90
19044;DHT22;9654;52.302;8.120;2023-04-01T00:17:08;9.50;99.90
19044;DHT22;9654;52.302;8.120;2023-04-01T00:19:37;9.50;99.90
19044;DHT22;9654;52.302;8.120;2023-04-01T00:22:04;9.50;99.90
19044;DHT22;9654;52.302;8.120;2023-04-01T00:24:31;9.50;99.90
19044;DHT22;9654;52.302;8.120;2023-04-01T00:26:58;9.40;99.90
19044;DHT22;9654;52.302;8.120;2023-04-01T00:29:25;9.50;99.90
19044;DHT22;9654;52.302;8.120;2023-04-01T00:31:55;9.40;99.90
19044;DHT22;9654;52.302;8.120;2023-04-01T00:34:22;9.40;99.90
19044;DHT22;9654;52.302;8.120;2023-04-01T00:36:51;9.40;99.90
19044;DHT22;9654;52.302;8.120;2023-04-01T00:39:19;9.40;99.90
19044;DHT22;9654;52.302;8.120;2023-04-01T00:41:47;9.40;99.90
19044;DHT22;9654;52.302;8.120;2023-04-01T00:44:19;9.40;99.90
19044;DHT22;9654;52.302;8.120;2023-04-01T00:46:47;9.40;99.90
19044;DHT22;9654;52.302;8.120;2023-04-01T00:49:16;9.40;99.90
19044;DHT22;9654;52.302;8.120;2023-04-01T00:51:45;9.40;99.90
19044;DHT22;9654;52.302;8.120;2023-04-01T00:54:16;9.40;99.90
19044;DHT22;9654;52.302;8.120;2023-04-01T00:56:46;9.40;99.90
19044;DHT22;9654;52.302;8.120;2023-04-01T00:59:19;9.40;99.90
19044;DHT22;9654;52.302;8.120;2023-04-01T01:01:47;9.30;99.90
19044;DHT22;9654;52.302;8.120;2023-04-01T01:04:22;9.40;99.90
19044;DHT22;9654;52.302;8.120;2023-04-01T01:06:54;9.30;99.90
19044;DHT22;9654;52.302;8.120;2023-04-01T01:09:32;9.30;99.90
19044;DHT22;9654;52.302;8.120;2023-04-01T01:12:05;9.30;99.90
19044;DHT22;9654;52.302;8.120;2023-04-01T01:14:43;9.30;99.90
19044;DHT22;9654;52.302;8.120;2023-04-01T01:17:16;9.30;99.90
19044;DHT22;9654;52.302;8.120;2023-04-01T01:20:06;9.30;99.90
19044;DHT22;9654;52.302;8.120;2023-04-01T01:22:44;9.30;99.90
19044;DHT22;9654;52.302;8.120;2023-04-01T01:25:25;9.30;99.90
19044;DHT22;9654;52.302;8.120;2023-04-01T01:28:08;9.30;99.90
19044;DHT22;9654;52.302;8.120;2023-04-01T01:30:43;9.30;99.90
19044;DHT22;9654;52.302;8.120;2023-04-01T01:33:48;9.30;99.90
19044;DHT22;9654;52.302;8.120;2023-04-01T01:36:19;9.30;99.90
19044;DHT22;9654;52.302;8.120;2023-04-01T01:38:47;9.30;99.90
19044;DHT22;9654;52.302;8.120;2023-04-01T01:41:16;9.30;99.90
19044;DHT22;9654;52.302;8.120;2023-04-01T01:43:47;9.30;99.90
19044;DHT22;9654;52.302;8.120;2023-04-01T01:46:18;9.30;99.90
19044;DHT22;9654;52.302;8.120;2023-04-01T01:48:47;9.20;99.90
19044;DHT22;9654;52.302;8.120;2023-04-01T01:51:16;9.20;99.90
19044;DHT22;9654;52.302;8.120;2023-04-01T01:53:44;9.20;99.90
19044;DHT22;9654;52.302;8.120;2023-04-01T01:56:12;9.20;99.90
19044;DHT22;9654;52.302;8.120;2023-04-01T01:58:41;9.20;99.90
19044;DHT22;9654;52.302;8.120;2023-04-01T02:01:12;9.20;99.90
19044;DHT22;9654;52.302;8.120;2023-04-01T02:03:40;9.20;99.90
19044;DHT22;9654;52.302;8.120;2023-04-01T02:06:12;9.20;99.90
19044;DHT22;9654;52.302;8.120;2023-04-01T02:08:44;9.20;99.90
19044;DHT22;9654;52.302;8.120;2023-04-01T02:11:13;9.20;99.90
19044;DHT22;9654;52.302;8.120;2023-04-01T02:13:45;9.20;99.90
19044;DHT22;9654;52.302;8.120;2023-04-01T02:16:18;9.20;99.90
19044;DHT22;9654;52.302;8.120;2023-04-01T02:18:48;9.20;99.90
19044;DHT22;9654;52.302;8.120;2023-04-01T02:21:17;9.20;99.90
19044;DHT22;9654;52.302;8.120;2023-04-01T02:23:47;9.20;99.90
19044;DHT22;9654;52.302;8.120;2023-04-01T02:26:14;9.20;99.90
19044;DHT22;9654;52.302;8.120;2023-04-01T02:28:42;9.20;99.90
19044;DHT22;9654;52.302;8.120;2023-04-01T02:31:10;9.10;99.90
19044;DHT22;9654;52.302;8.120;2023-04-01T02:33:38;9.20;99.90
19044;DHT22;9654;52.302;8.120;2023-04-01T02:36:06;9.20;99.90
19044;DHT22;9654;52.302;8.120;2023-04-01T02:38:36;9.20;99.90
19044;DHT22;9654;52.302;8.120;2023-04-01T02:41:05;9.10;99.90
19044;DHT22;9654;52.302;8.120;2023-04-01T02:43:32;9.10;99.90
19044;DHT22;9654;52.302;8.120;2023-04-01T02:45:59;9.10;99.90
19044;DHT22;9654;52.302;8.120;2023-04-01T02:48:27;9.10;99.90
19044;DHT22;9654;52.302;8.120;2023-04-01T02:50:53;9.10;99.90
19044;DHT22;9654;52.302;8.120;2023-04-01T02:53:21;9.10;99.90
19044;DHT22;9654;52.302;8.120;2023-04-01T02:55:49;9.10;99.90
19044;DHT22;9654;52.302;8.120;2023-04-01T02:58:18;9.10;99.90
19044;DHT22;9654;52.302;8.120;2023-04-01T03:00:45;9.10;99.90
19044;DHT22;9654;52.302;8.120;2023-04-01T03:03:12;9.10;99.90
19044;DHT22;9654;52.302;8.120;2023-04-01T03:05:39;9.10;99.90
19044;DHT22;9654;52.302;8.120;2023-04-01T03:08:06;9.10;99.90
19044;DHT22;9654;52.302;8.120;2023-04-01T03:10:33;9.20;99.90
19044;DHT22;9654;52.302;8.120;2023-04-01T03:13:00;9.20;99.90
19044;DHT22;9654;52.302;8.120;2023-04-01T03:15:28;9.10;99.90
19044;DHT22;9654;52.302;8.120;2023-04-01T03:17:55;9.10;99.90
19044;DHT22;9654;52.302;8.120;2023-04-01T03:20:21;9.10;99.90
19044;DHT22;9654;52.302;8.120;2023-04-01T03:22:48;9.10;99.90
19044;DHT22;9654;52.302;8.120;2023-04-01T03:25:15;9.10;99.90
19044;DHT22;9654;52.302;8.120;2023-04-01T03:27:42;9.10;99.90
19044;DHT22;9654;52.302;8.120;2023-04-01T03:30:09;9.10;99.90
19044;DHT22;9654;52.302;8.120;2023-04-01T03:32:37;9.10;99.90
19044;DHT22;9654;52.302;8.120;2023-04-01T03:35:04;9.10;99.90
19044;DHT22;9654;52.302;8.120;2023-04-01T03:37:31;9.10;99.90
19044;DHT22;9654;52.302;8.120;2023-04-01T03:39:58;9.10;99.90
19044;DHT22;9654;52.302;8.120;2023-04-01T03:42:25;9.10;99.90
19044;DHT22;9654;52.302;8.120;2023-04-01T03:44:52;9.10;99.90
19044;DHT22;9654;52.302;8.120;2023-04-01T03:47:18;9.10;99.90
19044;DHT22;9654;52.302;8.120;2023-04-01T03:49:46;9.10;99.90
19044;DHT22;9654;52.302;8.120;2023-04-01T03:52:13;9.10;99.90
19044;DHT22;9654;52.302;8.120;2023-04-01T03:54:40;9.10;99.90
19044;DHT22;9654;52.302;8.120;2023-04-01T03:57:07;9.10;99.90
19044;DHT22;9654;52.302;8.120;2023-04-01T03:59:34;9.10;99.90
19044;DHT22;9654;52.302;8.120;2023-04-01T04:02:01;9.00;99.90
19044;DHT22;9654;52.302;8.120;2023-04-01T04:04:28;9.00;99.90
19044;DHT22;9654;52.302;8.120;2023-04-01T04:06:57;9.00;99.90
19044;DHT22;9654;52.302;8.120;2023-04-01T04:09:23;9.00;99.90
19044;DHT22;9654;52.302;8.120;2023-04-01T04:11:50;9.00;99.90
19044;DHT22;9654;52.302;8.120;2023-04-01T04:14:17;9.00;99.90
19044;DHT22;9654;52.302;8.120;2023-04-01T04:16:44;9.00;99.90
19044;DHT22;9654;52.302;8.120;2023-04-01T04:19:11;9.00;99.90
19044;DHT22;9654;52.302;8.120;2023-04-01T04:21:37;9.00;99.90
19044;DHT22;9654;52.302;8.120;2023-04-01T04:24:07;9.00;99.90
19044;DHT22;9654;52.302;8.120;2023-04-01T04:26:34;9.00;99.90
19044;DHT22;9654;52.302;8.120;2023-04-01T04:29:02;8.90;99.90
19044;DHT22;9654;52.302;8.120;2023-04-01T04:31:29;9.00;99.90
19044;DHT22;9654;52.302;8.120;2023-04-01T04:33:55;8.90;99.90
19044;DHT22;9654;52.302;8.120;2023-04-01T04:36:22;8.90;99.90
19044;DHT22;9654;52.302;8.120;2023-04-01T04:38:49;8.90;99.90
19044;DHT22;9654;52.302;8.120;2023-04-01T04:41:18;8.90;99.90
19044;DHT22;9654;52.302;8.120;2023-04-01T04:43:49;8.90;99.90
19044;DHT22;9654;52.302;8.120;2023-04-01T04:46:18;8.90;99.90
19044;DHT22;9654;52.302;8.120;2023-04-01T04:48:45;8.90;99.90
19044;DHT22;9654;52.302;8.120;2023-04-01T04:51:15;8.90;99.90
19044;DHT22;9654;52.302;8.120;2023-04-01T04:53:42;8.90;99.90
19044;DHT22;9654;52.302;8.120;2023-04-01T04:56:09;8.90;99.90
19044;DHT22;9654;52.302;8.120;2023-04-01T04:58:37;8.90;99.90
19044;DHT22;9654;52.302;8.120;2023-04-01T05:01:09;8.90;99.90
19044;DHT22;9654;52.302;8.120;2023-04-01T05:03:37;8.90;99.90
19044;DHT22;9654;52.302;8.120;2023-04-01T05:06:04;8.90;99.90
19044;DHT22;9654;52.302;8.120;2023-04-01T05:08:32;8.90;99.90
19044;DHT22;9654;52.302;8.120;2023-04-01T05:10:59;8.90;99.90
19044;DHT22;9654;52.302;8.120;2023-04-01T05:13:26;8.90;99.90
19044;DHT22;9654;52.302;8.120;2023-04-01T05:15:54;8.90;99.90
19044;DHT22;9654;52.302;8.120;2023-04-01T05:18:21;8.90;99.90
19044;DHT22;9654;52.302;8.120;2023-04-01T05:20:49;8.90;99.90
19044;DHT22;9654;52.302;8.120;2023-04-01T05:23:16;8.90;99.90
19044;DHT22;9654;52.302;8.120;2023-04-01T05:25:43;8.90;99.90
19044;DHT22;9654;52.302;8.120;2023-04-01T05:28:11;8.90;99.90
19044;DHT22;9654;52.302;8.120;2023-04-01T05:30:40;8.90;99.90
19044;DHT22;9654;52.302;8.120;2023-04-01T05:33:08;8.90;99.90
19044;DHT22;9654;52.302;8.120;2023-04-01T05:35:36;8.90;99.90
19044;DHT22;9654;52.302;8.120;2023-04-01T05:38:03;8.90;99.90
19044;DHT22;9654;52.302;8.120;2023-04-01T05:40:30;8.90;99.90
19044;DHT22;9654;52.302;8.120;2023-04-01T05:42:58;8.90;99.90
19044;DHT22;9654;52.302;8.120;2023-04-01T05:45:25;8.90;99.90
19044;DHT22;9654;52.302;8.120;2023-04-01T05:47:52;9.00;99.90
19044;DHT22;9654;52.302;8.120;2023-04-01T05:50:20;9.00;99.90
19044;DHT22;9654;52.302;8.120;2023-04-01T05:52:47;9.00;99.90
19044;DHT22;9654;52.302;8.120;2023-04-01T05:55:13;9.00;99.90
19044;DHT22;9654;52.302;8.120;2023-04-01T05:57:40;9.00;99.90
19044;DHT22;9654;52.302;8.120;2023-04-01T06:00:07;9.00;99.90
19044;DHT22;9654;52.302;8.120;2023-04-01T06:02:34;9.00;99.90
19044;DHT22;9654;52.302;8.120;2023-04-01T06:05:10;9.00;99.90
19044;DHT22;9654;52.302;8.120;2023-04-01T06:07:39;9.00;99.90
19044;DHT22;9654;52.302;8.120;2023-04-01T06:10:12;9.00;99.90
19044;DHT22;9654;52.302;8.120;2023-04-01T06:12:48;9.00;99.90
19044;DHT22;9654;52.302;8.120;2023-04-01T06:15:23;9.10;99.90
19044;DHT22;9654;52.302;8.120;2023-04-01T06:20:42;9.10;99.90
19044;DHT22;9654;52.302;8.120;2023-04-01T06:26:17;9.10;99.90
19044;DHT22;9654;52.302;8.120;2023-04-01T06:28:57;9.10;99.90
19044;DHT22;9654;52.302;8.120;2023-04-01T06:31:43;9.00;99.90
19044;DHT22;9654;52.302;8.120;2023-04-01T06:34:26;9.10;99.90
19044;DHT22;9654;52.302;8.120;2023-04-01T06:37:16;9.10;99.90
19044;DHT22;9654;52.302;8.120;2023-04-01T06:40:02;9.10;99.90
19044;DHT22;9654;52.302;8.120;2023-04-01T06:42:40;9.10;99.90
19044;DHT22;9654;52.302;8.120;2023-04-01T06:45:20;9.10;99.90
19044;DHT22;9654;52.302;8.120;2023-04-01T06:48:02;9.10;99.90
19044;DHT22;9654;52.302;8.120;2023-04-01T06:50:36;9.20;99.90
19044;DHT22;9654;52.302;8.120;2023-04-01T06:53:12;9.20;99.90
19044;DHT22;9654;52.302;8.120;2023-04-01T06:55:44;9.20;99.90
19044;DHT22;9654;52.302;8.120;2023-04-01T06:58:20;9.20;99.90
19044;DHT22;9654;52.302;8.120;2023-04-01T07:00:50;9.20;99.90
19044;DHT22;9654;52.302;8.120;2023-04-01T07:03:23;9.20;99.90
19044;DHT22;9654;52.302;8.120;2023-04-01T07:05:57;9.20;99.90
19044;DHT22;9654;52.302;8.120;2023-04-01T07:08:27;9.20;99.90
19044;DHT22;9654;52.302;8.120;2023-04-01T07:11:00;9.30;99.90
19044;DHT22;9654;52.302;8.120;2023-04-01T07:13:32;9.30;99.90
19044;DHT22;9654;52.302;8.120;2023-04-01T07:16:09;9.30;99.90
19044;DHT22;9654;52.302;8.120;2023-04-01T07:18:41;9.30;99.90
19044;DHT22;9654;52.302;8.120;2023-04-01T07:21:23;9.40;99.90
19044;DHT22;9654;52.302;8.120;2023-04-01T07:23:56;9.40;99.90
19044;DHT22;9654;52.302;8.120;2023-04-01T07:26:27;9.40;99.90
19044;DHT22;9654;52.302;8.120;2023-04-01T07:28:54;9.40;99.90
19044;DHT22;9654;52.302;8.120;2023-04-01T07:31:39;9.40;99.90
19044;DHT22;9654;52.302;8.120;2023-04-01T07:34:15;9.40;99.90
19044;DHT22;9654;52.302;8.120;2023-04-01T07:36:48;9.40;99.90
19044;DHT22;9654;52.302;8.120;2023-04-01T07:39:27;9.50;99.90
19044;DHT22;9654;52.302;8.120;2023-04-01T07:42:04;9.50;99.90
19044;DHT22;9654;52.302;8.120;2023-04-01T07:44:39;9.50;99.90
19044;DHT22;9654;52.302;8.120;2023-04-01T07:47:17;9.60;99.90
19044;DHT22;9654;52.302;8.120;2023-04-01T07:49:56;9.60;99.90
19044;DHT22;9654;52.302;8.120;2023-04-01T07:52:31;9.60;99.90
19044;DHT22;9654;52.302;8.120;2023-04-01T07:55:07;9.60;99.90
19044;DHT22;9654;52.302;8.120;2023-04-01T07:57:46;9.60;99.90
19044;DHT22;9654;52.302;8.120;2023-04-01T08:00:19;9.70;99.90
19044;DHT22;9654;52.302;8.120;2023-04-01T08:03:05;9.70;99.90
19044;DHT22;9654;52.302;8.120;2023-04-01T08:05:40;9.80;99.90
19044;DHT22;9654;52.302;8.120;2023-04-01T08:08:18;9.80;99.90
19044;DHT22;9654;52.302;8.120;2023-04-01T08:10:49;9.80;99.90
19044;DHT22;9654;52.302;8.120;2023-04-01T08:13:28;9.90;99.90
19044;DHT22;9654;52.302;8.120;2023-04-01T08:16:06;9.90;99.90
19044;DHT22;9654;52.302;8.120;2023-04-01T08:18:40;9.90;99.90
19044;DHT22;9654;52.302;8.120;2023-04-01T08:21:13;9.90;99.90
19044;DHT22;9654;52.302;8.120;2023-04-01T08:23:44;9.90;99.90
19044;DHT22;9654;52.302;8.120;2023-04-01T08:26:15;9.90;99.90
19044;DHT22;9654;52.302;8.120;2023-04-01T08:28:51;9.90;99.90
19044;DHT22;9654;52.302;8.120;2023-04-01T08:31:22;10.00;99.90
19044;DHT22;9654;52.302;8.120;2023-04-01T08:33:54;10.10;99.90
19044;DHT22;9654;52.302;8.120;2023-04-01T08:36:22;10.10;99.90
19044;DHT22;9654;52.302;8.120;2023-04-01T08:38:53;10.20;99.90
19044;DHT22;9654;52.302;8.120;2023-04-01T08:41:48;10.20;99.90
19044;DHT22;9654;52.302;8.120;2023-04-01T08:44:47;10.20;99.90
19044;DHT22;9654;52.302;8.120;2023-04-01T08:47:46;10.30;99.90
19044;DHT22;9654;52.302;8.120;2023-04-01T08:50:41;10.30;99.90
19044;DHT22;9654;52.302;8.120;2023-04-01T08:53:15;10.40;99.90
19044;DHT22;9654;52.302;8.120;2023-04-01T08:56:05;10.40;99.90
19044;DHT22;9654;52.302;8.120;2023-04-01T09:01:48;10.50;99.90
19044;DHT22;9654;52.302;8.120;2023-04-01T09:04:25;10.50;99.90
19044;DHT22;9654;52.302;8.120;2023-04-01T09:07:13;10.50;99.90
19044;DHT22;9654;52.302;8.120;2023-04-01T09:13:09;10.40;99.90
19044;DHT22;9654;52.302;8.120;2023-04-01T09:18:59;10.40;99.90
19044;DHT22;9654;52.302;8.120;2023-04-01T09:21:57;10.40;99.90
19044;DHT22;9654;52.302;8.120;2023-04-01T09:24:40;10.40;99.90
19044;DHT22;9654;52.302;8.120;2023-04-01T09:27:15;10.40;99.90
19044;DHT22;9654;52.302;8.120;2023-04-01T09:36:03;10.90;99.90
19044;DHT22;9654;52.302;8.120;2023-04-01T09:38:42;11.00;99.90
19044;DHT22;9654;52.302;8.120;2023-04-01T09:41:24;11.20;99.90
19044;DHT22;9654;52.302;8.120;2023-04-01T09:44:00;11.10;99.90
19044;DHT22;9654;52.302;8.120;2023-04-01T09:46:40;11.20;99.90
19044;DHT22;9654;52.302;8.120;2023-04-01T09:49:36;11.30;99.90
19044;DHT22;9654;52.302;8.120;2023-04-01T09:52:21;11.40;99.90
19044;DHT22;9654;52.302;8.120;2023-04-01T09:55:04;11.50;99.90
19044;DHT22;9654;52.302;8.120;2023-04-01T09:58:04;11.60;99.90
19044;DHT22;9654;52.302;8.120;2023-04-01T10:00:55;11.80;99.90
19044;DHT22;9654;52.302;8.120;2023-04-01T10:06:58;11.80;99.90
19044;DHT22;9654;52.302;8.120;2023-04-01T10:09:57;11.80;99.90
19044;DHT22;9654;52.302;8.120;2023-04-01T10:13:02;11.80;99.90
19044;DHT22;9654;52.302;8.120;2023-04-01T10:25:12;11.80;99.90
19044;DHT22;9654;52.302;8.120;2023-04-01T10:34:39;11.70;99.90
19044;DHT22;9654;52.302;8.120;2023-04-01T10:37:21;11.80;99.90
19044;DHT22;9654;52.302;8.120;2023-04-01T10:43:28;11.90;99.90
19044;DHT22;9654;52.302;8.120;2023-04-01T10:46:28;11.90;99.90
19044;DHT22;9654;52.302;8.120;2023-04-01T10:49:26;11.90;99.90
19044;DHT22;9654;52.302;8.120;2023-04-01T10:55:31;12.10;99.90
19044;DHT22;9654;52.302;8.120;2023-04-01T10:58:32;12.00;99.90
19044;DHT22;9654;52.302;8.120;2023-04-01T11:01:27;12.00;99.90
19044;DHT22;9654;52.302;8.120;2023-04-01T11:04:33;12.00;99.90
19044;DHT22;9654;52.302;8.120;2023-04-01T11:07:44;11.80;99.90
19044;DHT22;9654;52.302;8.120;2023-04-01T11:20:16;11.40;99.90
19044;DHT22;9654;52.302;8.120;2023-04-01T11:26:08;11.40;99.90
19044;DHT22;9654;52.302;8.120;2023-04-01T11:31:45;11.30;99.90
19044;DHT22;9654;52.302;8.120;2023-04-01T11:34:32;11.30;99.90
19044;DHT22;9654;52.302;8.120;2023-04-01T11:37:08;11.20;99.90
19044;DHT22;9654;52.302;8.120;2023-04-01T11:39:46;11.20;99.90
19044;DHT22;9654;52.302;8.120;2023-04-01T11:42:22;11.20;99.90
19044;DHT22;9654;52.302;8.120;2023-04-01T11:44:57;11.30;99.90
19044;DHT22;9654;52.302;8.120;2023-04-01T11:47:52;11.20;99.90
19044;DHT22;9654;52.302;8.120;2023-04-01T11:50:31;11.30;99.90
19044;DHT22;9654;52.302;8.120;2023-04-01T11:53:13;11.50;99.90
19044;DHT22;9654;52.302;8.120;2023-04-01T11:56:02;11.50;99.90
19044;DHT22;9654;52.302;8.120;2023-04-01T11:59:00;11.50;99.90
19044;DHT22;9654;52.302;8.120;2023-04-01T12:01:36;11.50;99.90
19044;DHT22;9654;52.302;8.120;2023-04-01T12:04:41;11.50;99.90
19044;DHT22;9654;52.302;8.120;2023-04-01T12:07:19;11.50;99.90
19044;DHT22;9654;52.302;8.120;2023-04-01T12:09:55;11.60;99.90
19044;DHT22;9654;52.302;8.120;2023-04-01T12:12:32;11.60;99.90
19044;DHT22;9654;52.302;8.120;2023-04-01T12:15:15;11.60;99.90
19044;DHT22;9654;52.302;8.120;2023-04-01T12:17:48;11.70;99.90
19044;DHT22;9654;52.302;8.120;2023-04-01T12:20:39;11.60;99.90
19044;DHT22;9654;52.302;8.120;2023-04-01T12:23:29;11.60;99.90
19044;DHT22;9654;52.302;8.120;2023-04-01T12:26:25;11.50;99.90
19044;DHT22;9654;52.302;8.120;2023-04-01T12:29:07;11.50;99.90
19044;DHT22;9654;52.302;8.120;2023-04-01T12:31:45;11.40;99.90
19044;DHT22;9654;52.302;8.120;2023-04-01T12:34:41;11.40;99.90
19044;DHT22;9654;52.302;8.120;2023-04-01T12:37:17;11.40;99.90
19044;DHT22;9654;52.302;8.120;2023-04-01T12:40:06;11.40;99.90
19044;DHT22;9654;52.302;8.120;2023-04-01T12:42:55;11.40;99.90
19044;DHT22;9654;52.302;8.120;2023-04-01T12:45:30;11.20;99.90
19044;DHT22;9654;52.302;8.120;2023-04-01T12:48:27;11.10;99.90
19044;DHT22;9654;52.302;8.120;2023-04-01T12:51:23;11.10;99.90
19044;DHT22;9654;52.302;8.120;2023-04-01T12:54:29;11.00;99.90
19044;DHT22;9654;52.302;8.120;2023-04-01T12:57:20;11.00;99.90
19044;DHT22;9654;52.302;8.120;2023-04-01T13:00:08;10.90;99.90
19044;DHT22;9654;52.302;8.120;2023-04-01T13:02:49;11.00;99.90
19044;DHT22;9654;52.302;8.120;2023-04-01T13:06:00;11.00;99.90
19044;DHT22;9654;52.302;8.120;2023-04-01T13:08:37;11.00;99.90
19044;DHT22;9654;52.302;8.120;2023-04-01T13:11:20;11.00;99.90
19044;DHT22;9654;52.302;8.120;2023-04-01T13:14:36;11.00;99.90
19044;DHT22;9654;52.302;8.120;2023-04-01T13:17:12;11.10;99.90
19044;DHT22;9654;52.302;8.120;2023-04-01T13:19:45;11.10;99.90
19044;DHT22;9654;52.302;8.120;2023-04-01T13:22:19;11.20;99.90
19044;DHT22;9654;52.302;8.120;2023-04-01T13:24:51;11.20;99.90
19044;DHT22;9654;52.302;8.120;2023-04-01T13:27:23;11.30;99.90
19044;DHT22;9654;52.302;8.120;2023-04-01T13:30:02;11.30;99.90
19044;DHT22;9654;52.302;8.120;2023-04-01T13:32:38;11.30;99.90
19044;DHT22;9654;52.302;8.120;2023-04-01T13:35:20;11.40;99.90
19044;DHT22;9654;52.302;8.120;2023-04-01T13:38:01;11.30;99.90
19044;DHT22;9654;52.302;8.120;2023-04-01T13:40:41;11.30;99.90
19044;DHT22;9654;52.302;8.120;2023-04-01T13:43:15;11.30;99.90
19044;DHT22;9654;52.302;8.120;2023-04-01T13:46:05;11.20;99.90
19044;DHT22;9654;52.302;8.120;2023-04-01T13:51:53;11.20;99.90
19044;DHT22;9654;52.302;8.120;2023-04-01T13:54:50;11.30;99.90
19044;DHT22;9654;52.302;8.120;2023-04-01T13:57:30;11.40;99.90
19044;DHT22;9654;52.302;8.120;2023-04-01T14:00:33;11.60;99.90
19044;DHT22;9654;52.302;8.120;2023-04-01T14:03:33;11.60;99.90
19044;DHT22;9654;52.302;8.120;2023-04-01T14:06:27;11.60;99.90
19044;DHT22;9654;52.302;8.120;2023-04-01T14:11:51;11.60;99.90
19044;DHT22;9654;52.302;8.120;2023-04-01T14:14:32;11.60;99.90
19044;DHT22;9654;52.302;8.120;2023-04-01T14:17:14;11.60;99.90
19044;DHT22;9654;52.302;8.120;2023-04-01T14:20:02;11.50;99.90
19044;DHT22;9654;52.302;8.120;2023-04-01T14:22:39;11.40;99.90
19044;DHT22;9654;52.302;8.120;2023-04-01T14:25:29;11.30;99.90
19044;DHT22;9654;52.302;8.120;2023-04-01T14:28:09;11.20;99.90
19044;DHT22;9654;52.302;8.120;2023-04-01T14:30:55;11.20;99.90
19044;DHT22;9654;52.302;8.120;2023-04-01T14:33:36;11.20;99.90
19044;DHT22;9654;52.302;8.120;2023-04-01T14:36:29;11.30;99.90
19044;DHT22;9654;52.302;8.120;2023-04-01T14:39:07;11.30;99.90
19044;DHT22;9654;52.302;8.120;2023-04-01T14:41:47;11.20;99.90
19044;DHT22;9654;52.302;8.120;2023-04-01T14:44:23;11.10;99.90
19044;DHT22;9654;52.302;8.120;2023-04-01T14:50:03;11.10;99.90
19044;DHT22;9654;52.302;8.120;2023-04-01T14:52:32;11.00;99.90
19044;DHT22;9654;52.302;8.120;2023-04-01T14:55:00;11.10;99.90
19044;DHT22;9654;52.302;8.120;2023-04-01T14:57:30;11.00;99.90
19044;DHT22;9654;52.302;8.120;2023-04-01T15:00:00;11.00;99.90
19044;DHT22;9654;52.302;8.120;2023-04-01T15:02:42;11.00;99.90
19044;DHT22;9654;52.302;8.120;2023-04-01T15:05:26;11.00;99.90
19044;DHT22;9654;52.302;8.120;2023-04-01T15:08:05;11.10;99.90
19044;DHT22;9654;52.302;8.120;2023-04-01T15:11:02;11.00;99.90
19044;DHT22;9654;52.302;8.120;2023-04-01T15:16:24;11.10;99.90
19044;DHT22;9654;52.302;8.120;2023-04-01T15:19:00;11.10;99.90
19044;DHT22;9654;52.302;8.120;2023-04-01T15:21:58;11.00;99.90
19044;DHT22;9654;52.302;8.120;2023-04-01T15:24:39;10.90;99.90
19044;DHT22;9654;52.302;8.120;2023-04-01T15:27:15;10.70;99.90
19044;DHT22;9654;52.302;8.120;2023-04-01T15:30:00;10.50;99.90
19044;DHT22;9654;52.302;8.120;2023-04-01T15:32:39;10.50;99.90
19044;DHT22;9654;52.302;8.120;2023-04-01T15:35:21;10.30;99.90
19044;DHT22;9654;52.302;8.120;2023-04-01T15:37:56;10.10;99.90
19044;DHT22;9654;52.302;8.120;2023-04-01T15:40:29;10.10;99.90
19044;DHT22;9654;52.302;8.120;2023-04-01T15:43:06;10.10;99.90
19044;DHT22;9654;52.302;8.120;2023-04-01T15:45:46;10.00;99.90
19044;DHT22;9654;52.302;8.120;2023-04-01T15:48:25;9.80;99.90
19044;DHT22;9654;52.302;8.120;2023-04-01T15:51:07;9.70;99.90
19044;DHT22;9654;52.302;8.120;2023-04-01T15:54:00;9.50;99.90
19044;DHT22;9654;52.302;8.120;2023-04-01T15:56:48;9.50;99.90
19044;DHT22;9654;52.302;8.120;2023-04-01T15:59:33;9.50;99.90
19044;DHT22;9654;52.302;8.120;2023-04-01T16:02:12;9.30;99.90
19044;DHT22;9654;52.302;8.120;2023-04-01T16:04:47;9.30;99.90
19044;DHT22;9654;52.302;8.120;2023-04-01T16:07:29;9.30;99.90
19044;DHT22;9654;52.302;8.120;2023-04-01T16:10:09;9.20;99.90
19044;DHT22;9654;52.302;8.120;2023-04-01T16:12:50;9.20;99.90
19044;DHT22;9654;52.302;8.120;2023-04-01T16:15:25;9.00;99.90
19044;DHT22;9654;52.302;8.120;2023-04-01T16:18:08;8.90;99.90
19044;DHT22;9654;52.302;8.120;2023-04-01T16:20:44;8.90;99.90
19044;DHT22;9654;52.302;8.120;2023-04-01T16:23:18;8.90;99.90
19044;DHT22;9654;52.302;8.120;2023-04-01T16:25:57;8.80;99.90
19044;DHT22;9654;52.302;8.120;2023-04-01T16:28:28;8.80;99.90
19044;DHT22;9654;52.302;8.120;2023-04-01T16:30:58;8.90;99.90
19044;DHT22;9654;52.302;8.120;2023-04-01T16:33:35;8.80;99.90
19044;DHT22;9654;52.302;8.120;2023-04-01T16:36:10;8.80;99.90
19044;DHT22;9654;52.302;8.120;2023-04-01T16:38:43;8.70;99.90
19044;DHT22;9654;52.302;8.120;2023-04-01T16:41:16;8.60;99.90
19044;DHT22;9654;52.302;8.120;2023-04-01T16:43:45;8.60;99.90
19044;DHT22;9654;52.302;8.120;2023-04-01T16:46:27;8.60;99.90
19044;DHT22;9654;52.302;8.120;2023-04-01T16:49:23;8.60;99.90
19044;DHT22;9654;52.302;8.120;2023-04-01T16:51:54;8.50;99.90
19044;DHT22;9654;52.302;8.120;2023-04-01T16:54:28;8.50;99.90
19044;DHT22;9654;52.302;8.120;2023-04-01T16:57:12;8.40;99.90
19044;DHT22;9654;52.302;8.120;2023-04-01T16:59:47;8.40;99.90
19044;DHT22;9654;52.302;8.120;2023-04-01T17:02:15;8.40;99.90
19044;DHT22;9654;52.302;8.120;2023-04-01T17:04:44;8.30;99.90
19044;DHT22;9654;52.302;8.120;2023-04-01T17:07:21;8.30;99.90
19044;DHT22;9654;52.302;8.120;2023-04-01T17:09:57;8.30;99.90
19044;DHT22;9654;52.302;8.120;2023-04-01T17:12:35;8.30;99.90
19044;DHT22;9654;52.302;8.120;2023-04-01T17:15:15;8.20;99.90
19044;DHT22;9654;52.302;8.120;2023-04-01T17:17:51;8.20;99.90
19044;DHT22;9654;52.302;8.120;2023-04-01T17:20:32;8.10;99.90
19044;DHT22;9654;52.302;8.120;2023-04-01T17:23:14;8.10;99.90
19044;DHT22;9654;52.302;8.120;2023-04-01T17:26:23;8.00;99.90
19044;DHT22;9654;52.302;8.120;2023-04-01T17:28:58;8.00;99.90
19044;DHT22;9654;52.302;8.120;2023-04-01T17:31:37;7.90;99.90
19044;DHT22;9654;52.302;8.120;2023-04-01T17:34:25;7.90;99.90
19044;DHT22;9654;52.302;8.120;2023-04-01T17:39:53;7.80;99.90
19044;DHT22;9654;52.302;8.120;2023-04-01T17:42:32;7.80;99.90
19044;DHT22;9654;52.302;8.120;2023-04-01T17:45:10;7.80;99.90
19044;DHT22;9654;52.302;8.120;2023-04-01T17:47:44;7.70;99.90
19044;DHT22;9654;52.302;8.120;2023-04-01T17:50:21;7.70;99.90
19044;DHT22;9654;52.302;8.120;2023-04-01T17:52:59;7.70;99.90
19044;DHT22;9654;52.302;8.120;2023-04-01T17:55:43;7.70;99.90
19044;DHT22;9654;52.302;8.120;2023-04-01T17:58:18;7.70;99.90
19044;DHT22;9654;52.302;8.120;2023-04-01T18:00:59;7.60;99.90
19044;DHT22;9654;52.302;8.120;2023-04-01T18:03:44;7.60;99.90
19044;DHT22;9654;52.302;8.120;2023-04-01T18:06:14;7.50;99.90
19044;DHT22;9654;52.302;8.120;2023-04-01T18:08:57;7.50;99.90
19044;DHT22;9654;52.302;8.120;2023-04-01T18:11:34;7.50;99.90
19044;DHT22;9654;52.302;8.120;2023-04-01T18:14:23;7.50;99.90
19044;DHT22;9654;52.302;8.120;2023-04-01T18:20:01;7.50;99.90